Terminal Aerodrome Forecast
Issued by NWS

Home | Current Version | Previous Version | Text Only | Print | Product List | Glossary On
Versions: 1 2 3 4 5 6 7 8 9 10 11 12 13 14 15 16 17 18 19 20 21 22 23 24 25 26 27 28 29 30 31 32 33 34 35 36
358
FTUS43 KDMX 101720
TAFOTM
TAF
KOTM 101720Z 1018/1118 31011KT P6SM FEW022
     FM110200 28005KT P6SM FEW200
     FM110900 22006KT P6SM BKN070
     FM111700 01008KT P6SM FEW200=

USA.gov is the U.S. government's official web portal to all federal, state and local government web resources and services.